METAR Data
IDs: Format: Raw Decoded Include TAF

Data at: 0606 UTC 19 Aug 2019

PASY 190555Z 07017KT 4SM BR OVC005 10/09 A3003 RMK AO2A SLP170 T01000091 10124 20099 57002 RVRNO
PASY 190455Z 07018KT 4SM BR BKN005 OVC018 10/09 A3003 RMK AO2A CIG 004V006 SLP170 RVRNO
PASY 190355Z 07016KT 4SM BR BKN005 OVC020 10/09 A3003 RMK AO2A CIG 005V008 SLP172 RVRNO
PASY 190335Z 08018KT 5SM BR SCT006 OVC020 10/09 A3003 RMK AO2A SLP171 RVRNO
PASY 190255Z 08017KT 5SM BR OVC020 11/09 A3004 RMK AO2A SLP173 T01060094 51006 RVRNO
PASY 190155Z 08018KT 5SM BR OVC020 11/10 A3003 RMK AO2A SLP171 RVRNO
PASY 190055Z 09020G26KT 5SM BR FEW009 OVC019 12/10 A3002 RMK AO2A PK WND 09027/0035 SLP168 T01140099 RVRNO $
PASY 182355Z 09020KT 5SM BR FEW009 OVC018 12/10 A3002 RMK AO2A PK WND 09028/2322 CIG 016V021 SLP166 T01180102 10118 20101 53011 RVRNO $
PASY 182301Z 09021KT 4SM BR BKN009 OVC018 11/10 A3000 RMK AO2A BKN009 V SCT SLP162 RVRNO $
PASY 182255Z 08021G28KT 4SM BR SCT009 OVC018 11/10 A3000 RMK AO2A PK WND 10031/2240 SCT009 V BKN SLP162 T01150101 RVRNO $
PASY 182156Z 08023KT 4SM BR BKN007 OVC014 11/10 A3000 RMK AO2A PK WND 08031/2106 BKN007 V SCT SLP159 T01080099 RVRNO $
PASY 182055Z 08022G26KT 4SM BR BKN006 OVC011 10/10 A2998 RMK AO2A PK WND 09028/2044 BKN V SCT SLP155 T01040098 51009 RVRNO $
PASY 181955Z 08020KT 4SM BR OVC006 10/10 A2998 RMK AO2A PK WND 08029/1930 SLP153 T01020096 RVRNO $
PASY 181855Z 09020G27KT 4SM BR BKN006 OVC015 10/09 A2997 RMK AO2A PK WND 08027/1845 SLP151 T01030097 RVRNO $
PASY 181755Z 09022G27KT 4SM BR BKN006 OVC015 10/09 A2996 RMK AO2A PK WND 08027/1747 BKN006 V SCT SLP146 T01010095 10101 20098 52007 RVRNO $
PASY 181657Z 08020KT 3SM BR BKN006 OVC015 10/09 A2995 RMK AO2A PK WND 09028/1619 BKN006 V SCT SLP144 T00990094 RVRNO
PASY 181622Z 09020G28KT 5SM BR OVC006 10/09 A2994 RMK AO2A PK WND 09028/1619 SLP142 RVRNO
PASY 181555Z 09023G28KT 5SM BR OVC005 10/09 A2994 RMK AO2A PK WND 09028/1549 SLP141 T00990094 RVRNO
PASY 181455Z 08019KT 3SM BR BKN004 OVC012 10/10 A2994 RMK AO2A PK WND 09026/1359 CIG 004V007 SLP139 T00990096 53004 RVRNO
PASY 181359Z 09020G26KT 3SM BR OVC004 10/10 A2993 RMK AO2A PK WND 09026/1345 VIS NW 3/4 AND N 1 SLP136 T0100097 RVRNO
PASY 181255Z 09019KT 2 1/2SM BR OVC005 10/10 A2993 RMK AO2A SLP136 T01000097 RVRNO
PASY 181207Z 09019KT 2 1/2SM BR BKN004 OVC009 10/10 A2993 RMK AO2A VIS NW-N 1 SLP136 RVRNO
PASY 181157Z COR 099018KT 2 1/2SM BR BKN005 OVC011 10/10 A2992 RMK AO2A VIS NW-N 1 DZE1129 SLP135 60009 70056 T01010098 10101 20098 53004 RVRNO COR 1206
PASY 181059Z 09018KT 3SM -DZ BR OVC005 10/10 A2992 RMK AO2A VIS NW-N 1 SLP134 T01010098 RVRNO
PASY 180955Z 09017KT 2SM -DZ BR OVC004 10/10 A2991 RMK AO2A VIS NW-N 3/4 SLP131 T01010098 401090082 RVRNO
PASY 180947Z 09016KT 2SM -DZ BR OVC004 10/10 A2991 RMK AO2A SLP131 RVRNO
PASY 180855Z 09015KT 1SM -DZ BR OVC005 10/10 A2991 RMK AO2A RAE35DZB35 SLP131 60009 T01000097 53003 RVRNO
PASY 180835Z 09013KT 1SM -DZ BR OVC006 10/10 A2991 RMK AO2A RAE35DZB35 SLP129 RVRNO
PASY 180825Z 09014KT 1SM -RA BR OVC006 10/10 A2991 RMK AO2A SLP130 RVRNO
PASY 180755Z 08012KT 3/4SM -RA BR VV004 10/10 A2991 RMK AO2A SLP128 RVRNO
PASY 180655Z 07008KT 3/4SM -RA BR OVC004 10/10 A2990 RMK AO2A SLP125 RVRNO
PASY 180640Z 05006KT 3/4SM -RA BR OVC004 10/10 A2990 RMK AO2A SLP125 RVRNO
PASY 180630Z 04007KT 1/2SM -RA FG VV003 10/10 A2990 RMK AO2A SLP125 RVRNO
PASY 180555Z 02009KT 1SM -RA BR OVC004 10/10 A2990 RMK AO2A SLP127 60045 T01000098 10105 20100 58006 RVRNO
PASY 180455Z 36012KT 1SM -RA BR OVC003 10/10 A2992 RMK AO2A SLP133 RVRNO
PASY 180355Z 34015KT 1SM -RA BR OVC003 10/10 A2991 RMK AO2A SLP130 RVRNO
PASY 180345Z 35014KT 1SM -RA BR OVC003 10/10 A2992 RMK AO2A SLP132 RVRNO
PASY 180315Z 35014KT 1 1/2SM -RA BR OVC004 10/10 A2992 RMK AO2A SLP134 RVRNO
PASY 180255Z 35013KT 2SM -RA BR BKN005 OVC013 10/10 A2993 RMK AO2A SLP136 60023 T01020097 58007 RVRNO
PASY 180230Z 35013KT 2SM -RA BR BKN005 OVC012 10/10 A2993 RMK AO2A SLP137 RVRNO
PASY 180155Z 35014KT 3SM -RA BR BKN009 OVC027 10/10 A2993 RMK AO2A BKN V SCT SLP136 RVRNO
PASY 180145Z 35016KT 3SM -RA BR BKN009 OVC027 10/10 A2993 RMK AO2A SLP137 RVRNO
PASY 180056Z 36012KT 3SM -RA BR FEW007 BKN012 OVC030 10/10 A2995 RMK AO2A RAB2320 SLP142 T01020098 RVRNO $
PASY 172355Z 35013KT 5SM -SHRA BR BKN012 OVC050 10/10 A2994 RMK AO2A SHRAB2255E03B20 SLP137 60002 T01050100 10109 20087 53006 RVRNO $
PASY 172325Z 35011KT 5SM -RA BR SCT012 OVC050 10/10 A2994 RMK AO2A RAB55E03B20 SLP137 RVRNO $
PASY 172303Z 35011KT 250V360 7SM SCT008 BKN050 BKN075 11/10 A2993 RMK RAB55E03 SLP137 RVRNO $
PASY 172255Z 35009KT 7SM -SHRA SCT008 BKN050 BKN060 11/10 A2994 RMK AO2A LTG DSNT S SHRAB55 SLP139 T01080102 RVRNO $
PASY 172246Z 35010KT 7SM SCT008 OVC065 11/10 A2993 RMK AO2A LTG DSNT S SLP137 RVRNO $
PASY 172155Z 35011KT FEW015 BKN090 OVC170 11/10 A2993 RMK AO2A SLP136 T01070102 RVRNO $
PASY 172058Z 32009KT 7SM FEW020 SCT080 BKN110 BKN170 10/10 A2992 RMK AO2A SLP135 T01010098 51007 RVRNO $
PASY 171958Z 32008KT 7SM FEW015 SCT080 BKN170 10/10 A2992 RMK AO2A SLP133 T00990096 RVRNO $
PASY 171858Z 32004KT 7SM FEW015 BKN080 BKN200 09/09 A2992 RMK AO2A SLP134 T00930090 RVRNO $